KYKN/YKN METAR and TAF weather

Enter ICAO airport designator
Station Type Date Time Source
KYKN METAR 2019/06/17 03:56 UTC NOAA

KYKN 170356Z AUTO 34005KT 10SM CLR 21/15 A2992 RMK AO2 SLP136 T02110150


Station Type Date Time Source
KYKN Decoded METAR 2019/06/17 03:56 UTC NOAA

Yankton, Chan Gurney Municipal Airport, SD, United States (KYKN) 42-55N 097-23W
Jun 16, 2019 - 11:56 PM EDT / 2019.06.17 0356 UTC
Wind: from the NNW (340 degrees) at 6 MPH (5 KT):0
Visibility: 10 mile(s):0
Sky conditions: clear
Temperature: 70.0 F (21.1 C)
Dew Point: 59.0 F (15.0 C)
Relative Humidity: 68%
Pressure (altimeter): 29.92 in. Hg (1013 hPa)
ob: KYKN 170356Z AUTO 34005KT 10SM CLR 21/15 A2992 RMK AO2 SLP136 T02110150
cycle: 4

Station Type Date Time Source
KYKN TAF UTC NOAA

Error!

Example: see airport list